createdAt,value
2019-05-20T00:03:23.377Z,17.72
2019-05-20T00:08:46.778Z,17.64
2019-05-20T00:14:10.293Z,17.57
2019-05-20T00:19:33.735Z,17.48
2019-05-20T00:24:56.856Z,17.44
2019-05-20T00:30:20.914Z,17.40
2019-05-20T00:35:44.725Z,17.37
2019-05-20T00:41:07.512Z,17.35
2019-05-20T00:46:30.733Z,17.31
2019-05-20T00:51:54.513Z,17.25
2019-05-20T00:57:18.017Z,17.25
2019-05-20T01:02:55.827Z,17.14
2019-05-20T01:08:05.971Z,17.08
2019-05-20T01:13:28.825Z,17.01
2019-05-20T01:18:52.330Z,17.02
2019-05-20T01:24:15.728Z,17.01
2019-05-20T01:29:39.221Z,16.96
2019-05-20T01:35:02.714Z,16.86
2019-05-20T01:40:26.247Z,16.93
2019-05-20T01:45:49.615Z,16.82
2019-05-20T01:51:12.558Z,16.85
2019-05-20T01:56:35.780Z,16.82
2019-05-20T02:01:59.310Z,16.86
2019-05-20T02:07:23.014Z,16.79
2019-05-20T02:12:46.324Z,16.82
2019-05-20T02:18:09.638Z,16.75
2019-05-20T02:23:33.402Z,16.68
2019-05-20T02:28:56.750Z,16.69
2019-05-20T02:34:20.226Z,16.63
2019-05-20T02:39:43.502Z,16.57
2019-05-20T02:45:09.028Z,16.53
2019-05-20T02:50:31.503Z,16.48
2019-05-20T02:56:23.382Z,16.52
2019-05-20T03:02:06.803Z,16.44
2019-05-20T03:07:24.349Z,16.44
2019-05-20T03:12:47.972Z,16.35
2019-05-20T03:18:11.391Z,16.24
2019-05-20T03:23:34.647Z,16.22
2019-05-20T03:28:57.965Z,16.17
2019-05-20T03:34:43.424Z,16.17
2019-05-20T03:39:48.235Z,16.15
2019-05-20T03:45:11.954Z,16.15
2019-05-20T03:50:35.757Z,16.17
2019-05-20T03:55:58.949Z,16.20
2019-05-20T04:01:23.924Z,16.16
2019-05-20T04:06:47.427Z,16.28
2019-05-20T04:12:10.977Z,16.24
2019-05-20T04:17:34.254Z,16.27
2019-05-20T04:22:57.059Z,16.39
2019-05-20T04:28:19.885Z,16.38
2019-05-20T04:33:43.290Z,16.32
2019-05-20T04:39:07.244Z,16.34
2019-05-20T04:44:31.087Z,16.36
2019-05-20T04:49:54.904Z,16.37
2019-05-20T04:55:18.064Z,16.31
2019-05-20T05:00:55.461Z,16.27
2019-05-20T05:06:18.610Z,16.25
2019-05-20T05:11:41.817Z,16.35
2019-05-20T05:17:05.711Z,16.37
2019-05-20T05:22:28.648Z,16.35
2019-05-20T05:27:51.888Z,16.60
2019-05-20T05:33:15.072Z,16.54
2019-05-20T05:38:38.599Z,16.65
2019-05-20T05:44:02.245Z,16.71
2019-05-20T05:49:25.354Z,16.55
2019-05-20T05:54:48.947Z,16.60
2019-05-20T06:00:12.466Z,16.72
2019-05-20T06:05:35.586Z,16.89
2019-05-20T06:10:58.393Z,16.97
2019-05-20T06:16:36.027Z,17.01
2019-05-20T06:21:46.309Z,17.08
2019-05-20T06:27:48.701Z,17.16
2019-05-20T06:33:11.645Z,17.28
2019-05-20T06:38:36.800Z,17.31
2019-05-20T06:44:00.282Z,17.32
2019-05-20T06:49:23.990Z,17.60
2019-05-20T06:54:46.735Z,17.62
2019-05-20T07:00:11.980Z,17.80
2019-05-20T07:05:35.257Z,17.99
2019-05-20T07:10:58.480Z,18.07
2019-05-20T07:16:21.686Z,18.30
2019-05-20T07:21:45.317Z,18.60
2019-05-20T07:27:08.673Z,18.87
2019-05-20T07:32:31.881Z,19.04
2019-05-20T07:37:55.164Z,19.06
2019-05-20T07:43:18.819Z,19.24
2019-05-20T07:48:42.588Z,19.20
2019-05-20T07:54:06.062Z,19.38
2019-05-20T07:59:31.423Z,19.81
2019-05-20T08:04:54.830Z,20.05
2019-05-20T08:10:18.568Z,20.30
2019-05-20T08:15:41.811Z,20.58
2019-05-20T08:21:05.527Z,20.61
2019-05-20T08:26:29.097Z,20.52
2019-05-20T08:31:52.384Z,20.52
2019-05-20T08:37:16.037Z,20.73
2019-05-20T08:42:39.602Z,21.10
2019-05-20T08:48:03.162Z,21.21
2019-05-20T08:53:26.126Z,21.21
2019-05-20T08:58:49.496Z,21.43
2019-05-20T09:04:12.222Z,21.61
2019-05-20T09:09:36.103Z,21.74
2019-05-20T09:15:00.049Z,21.93
2019-05-20T09:20:23.529Z,22.18
2019-05-20T09:25:47.078Z,21.82
2019-05-20T09:31:10.502Z,21.97
2019-05-20T09:36:33.756Z,22.71
2019-05-20T09:41:57.106Z,22.66
2019-05-20T09:47:20.398Z,23.08
2019-05-20T09:52:44.079Z,23.28
2019-05-20T09:58:07.757Z,23.22
2019-05-20T10:03:31.256Z,23.01
2019-05-20T10:08:55.104Z,22.86
2019-05-20T10:14:18.168Z,23.60
2019-05-20T10:19:41.895Z,23.53
2019-05-20T10:25:08.249Z,24.07
2019-05-20T10:30:31.894Z,24.17
2019-05-20T10:35:55.807Z,23.69
2019-05-20T10:41:20.099Z,24.38
2019-05-20T10:46:43.415Z,24.30
2019-05-20T10:52:06.663Z,24.54
2019-05-20T10:57:29.934Z,25.13
2019-05-20T11:02:55.430Z,24.03
2019-05-20T11:08:18.689Z,24.06
2019-05-20T11:13:41.961Z,23.84
2019-05-20T11:19:05.547Z,23.55
2019-05-20T11:24:30.325Z,23.24
2019-05-20T11:29:53.928Z,23.39
2019-05-20T11:35:17.672Z,23.29
2019-05-20T11:40:41.226Z,23.20
2019-05-20T11:46:04.619Z,23.28
2019-05-20T11:51:27.995Z,23.42
2019-05-20T11:56:51.661Z,23.63
2019-05-20T12:02:14.261Z,23.87
2019-05-20T12:07:37.682Z,23.51
2019-05-20T12:13:00.926Z,23.31
2019-05-20T12:18:24.241Z,23.46
2019-05-20T12:23:47.840Z,23.86
2019-05-20T12:29:10.934Z,23.53
2019-05-20T12:34:34.529Z,23.39
2019-05-20T12:40:07.158Z,23.54
2019-05-20T12:45:21.860Z,23.62
2019-05-20T12:50:44.938Z,23.55
2019-05-20T12:56:08.358Z,23.49
2019-05-20T13:01:31.882Z,23.72
2019-05-20T13:06:55.536Z,24.30
2019-05-20T13:12:18.830Z,24.08
2019-05-20T13:17:44.691Z,23.88
2019-05-20T13:23:09.937Z,23.29
2019-05-20T13:28:32.203Z,23.09
2019-05-20T13:33:56.073Z,22.87
2019-05-20T13:39:19.346Z,22.85
2019-05-20T13:44:42.915Z,22.61
2019-05-20T13:50:10.846Z,22.45
2019-05-20T13:55:33.892Z,22.32
2019-05-20T14:00:57.372Z,22.23
2019-05-20T14:06:20.695Z,22.17
2019-05-20T14:11:43.995Z,22.12
2019-05-20T14:17:07.197Z,22.01
2019-05-20T14:22:30.750Z,21.79
2019-05-20T14:27:54.438Z,21.60
2019-05-20T14:33:18.148Z,21.44
2019-05-20T14:38:41.542Z,21.32
2019-05-20T14:44:04.868Z,21.13
2019-05-20T14:49:28.074Z,20.86
2019-05-20T14:54:51.152Z,20.74
2019-05-20T15:00:16.068Z,20.61
2019-05-20T15:05:39.984Z,20.40
2019-05-20T15:11:03.930Z,20.29
2019-05-20T15:16:26.977Z,20.20
2019-05-20T15:21:50.607Z,20.14
2019-05-20T15:27:15.480Z,20.07
2019-05-20T15:32:39.039Z,19.65
2019-05-20T15:38:02.866Z,19.31
2019-05-20T15:43:26.033Z,18.83
2019-05-20T15:48:49.529Z,17.50
2019-05-20T15:54:12.974Z,17.51
2019-05-20T15:59:46.083Z,17.78
2019-05-20T16:05:06.287Z,17.68
2019-05-20T16:10:29.943Z,17.76
2019-05-20T16:15:52.928Z,17.83
2019-05-20T16:21:16.289Z,18.12
2019-05-20T16:26:39.799Z,18.49
2019-05-20T16:32:19.875Z,18.54
2019-05-20T16:37:43.429Z,18.53
2019-05-20T16:43:07.132Z,18.90
2019-05-20T16:48:30.715Z,19.10
2019-05-20T16:53:54.064Z,19.22
2019-05-20T16:59:17.806Z,19.25
2019-05-20T17:04:40.897Z,19.22
2019-05-20T17:10:06.793Z,19.33
2019-05-20T17:15:30.134Z,19.33
2019-05-20T17:20:54.094Z,19.24
2019-05-20T17:26:17.373Z,19.24
2019-05-20T17:31:41.042Z,19.23
2019-05-20T17:37:05.692Z,19.17
2019-05-20T17:42:29.299Z,19.07
2019-05-20T17:47:52.338Z,19.11
2019-05-20T17:53:15.876Z,19.08
2019-05-20T17:58:39.415Z,19.19
2019-05-20T18:04:03.614Z,19.20
2019-05-20T18:09:28.469Z,19.11
2019-05-20T18:14:55.271Z,19.08
2019-05-20T18:20:18.300Z,18.84
2019-05-20T18:25:41.580Z,18.59
2019-05-20T18:31:05.298Z,17.86
2019-05-20T18:36:27.991Z,17.34
2019-05-20T18:41:51.480Z,17.18
2019-05-20T18:47:14.826Z,17.43
2019-05-20T18:52:37.835Z,17.57
2019-05-20T18:58:01.722Z,17.85
2019-05-20T19:03:25.242Z,17.97
2019-05-20T19:09:16.763Z,17.90
2019-05-20T19:14:39.396Z,17.74
2019-05-20T19:20:02.741Z,17.95
2019-05-20T19:25:37.515Z,17.95
2019-05-20T19:30:50.651Z,18.12
2019-05-20T19:36:14.390Z,18.17
2019-05-20T19:41:38.179Z,18.19
2019-05-20T19:47:01.785Z,18.05
2019-05-20T19:52:24.997Z,17.69
2019-05-20T19:57:48.446Z,17.64
2019-05-20T20:03:11.907Z,17.46
2019-05-20T20:08:34.742Z,17.34
2019-05-20T20:13:58.239Z,17.12
2019-05-20T20:19:21.962Z,17.03
2019-05-20T20:24:45.872Z,16.95
2019-05-20T20:30:10.422Z,16.98
2019-05-20T20:35:38.194Z,17.04
2019-05-20T20:40:59.239Z,16.92
2019-05-20T20:46:22.489Z,16.90
2019-05-20T20:51:45.715Z,17.11
2019-05-20T20:57:09.243Z,16.95
2019-05-20T21:02:32.825Z,16.92
2019-05-20T21:07:56.282Z,16.85
2019-05-20T21:13:19.661Z,16.77
2019-05-20T21:18:42.987Z,16.81
2019-05-20T21:24:06.391Z,16.66
2019-05-20T21:29:32.531Z,16.48
2019-05-20T21:34:54.454Z,16.52
2019-05-20T21:40:17.327Z,16.45
2019-05-20T21:45:40.852Z,16.27
2019-05-20T21:51:04.470Z,16.25
2019-05-20T21:56:27.964Z,16.18
2019-05-20T22:01:51.512Z,16.19
2019-05-20T22:07:14.831Z,16.38
2019-05-20T22:12:38.087Z,16.52
2019-05-20T22:18:01.889Z,16.54
2019-05-20T22:23:29.285Z,16.14
2019-05-20T22:28:52.579Z,16.01
2019-05-20T22:34:17.177Z,16.09
2019-05-20T22:39:40.532Z,16.10
2019-05-20T22:45:03.641Z,15.91
2019-05-20T22:50:26.948Z,15.76
2019-05-20T22:55:50.610Z,15.70
2019-05-20T23:01:14.340Z,15.79
2019-05-20T23:06:37.144Z,15.72
2019-05-20T23:12:00.383Z,15.73
2019-05-20T23:17:24.182Z,15.63
2019-05-20T23:22:47.208Z,15.71
2019-05-20T23:28:10.802Z,15.70
2019-05-20T23:33:34.111Z,15.65
2019-05-20T23:38:57.333Z,15.56
2019-05-20T23:44:20.468Z,15.49
2019-05-20T23:49:43.231Z,15.46
2019-05-20T23:55:08.333Z,15.37
